Time;durP1;ratioP1;P1;durP2;ratioP2;P2;SDS_P1;SDS_P2;PMS_P1;PMS_P2;Temp;Humidity;BMP_temperature;BMP_pressure;BME280_temperature;BME280_humidity;BME280_pressure;Samples;Min_cycle;Max_cycle;Signal;HPM_P1;HPM_P2
2023/04/19 00:00:08;;;;;;;8.63;7.70;;;6.30;99.90;;;;;;5018513;28;20479;-63
2023/04/19 00:02:36;;;;;;;10.30;7.53;;;6.30;99.90;;;;;;5017669;28;20498;-63
2023/04/19 00:05:05;;;;;;;13.73;7.60;;;6.20;99.90;;;;;;5022584;28;20475;-63
2023/04/19 00:07:33;;;;;;;10.00;8.17;;;6.20;99.90;;;;;;5017635;28;20563;-63
2023/04/19 00:10:01;;;;;;;9.70;7.70;;;6.20;99.90;;;;;;5014608;28;20481;-63
2023/04/19 00:12:29;;;;;;;9.60;7.63;;;6.20;99.90;;;;;;5013937;28;20480;-63
2023/04/19 00:14:57;;;;;;;10.40;7.97;;;6.20;99.90;;;;;;5018633;28;21013;-63
2023/04/19 00:17:27;;;;;;;8.13;7.13;;;6.20;99.90;;;;;;5016821;28;20472;-63
2023/04/19 00:19:56;;;;;;;9.97;8.13;;;6.20;99.90;;;;;;5011883;28;20581;-63
2023/04/19 00:22:25;;;;;;;10.17;7.90;;;6.10;99.90;;;;;;5014100;28;20657;-63
2023/04/19 00:24:52;;;;;;;9.50;8.53;;;6.10;99.90;;;;;;5012039;28;20468;-62
2023/04/19 00:27:20;;;;;;;9.33;7.10;;;6.10;99.90;;;;;;5010751;28;20496;-63
2023/04/19 00:29:48;;;;;;;13.17;8.27;;;6.10;99.90;;;;;;5005701;28;20963;-63
2023/04/19 00:32:16;;;;;;;11.30;8.20;;;6.10;99.90;;;;;;5001540;28;21747;-63
2023/04/19 00:34:46;;;;;;;9.83;7.97;;;6.00;99.90;;;;;;4995019;28;20475;-63
2023/04/19 00:37:14;;;;;;;9.20;7.70;;;6.00;99.90;;;;;;4992570;28;20464;-63
2023/04/19 00:39:42;;;;;;;8.80;7.30;;;6.00;99.90;;;;;;5001453;28;20569;-62
2023/04/19 00:42:10;;;;;;;7.73;6.83;;;6.00;99.90;;;;;;4999110;28;20859;-63
2023/04/19 00:44:38;;;;;;;10.30;7.23;;;5.90;99.90;;;;;;5002285;28;20479;-63
2023/04/19 00:47:06;;;;;;;10.73;7.63;;;5.90;99.90;;;;;;5009577;28;20491;-63
2023/04/19 00:49:34;;;;;;;8.10;7.30;;;5.90;99.90;;;;;;5018186;28;20490;-64
2023/04/19 00:52:03;;;;;;;8.70;6.50;;;5.90;99.90;;;;;;5014878;28;20491;-64
2023/04/19 00:54:32;;;;;;;8.93;7.30;;;5.90;99.90;;;;;;5017290;28;20475;-62
2023/04/19 00:57:00;;;;;;;8.10;7.27;;;5.90;99.90;;;;;;5014337;28;20475;-63
2023/04/19 00:59:31;;;;;;;7.13;6.43;;;5.90;99.90;;;;;;5011897;28;20707;-63
2023/04/19 01:01:59;;;;;;;7.67;6.87;;;5.90;99.90;;;;;;5001757;28;20487;-63
2023/04/19 01:04:27;;;;;;;7.90;7.10;;;5.80;99.90;;;;;;5002750;28;20666;-63
2023/04/19 01:06:56;;;;;;;6.87;6.00;;;5.80;99.90;;;;;;5000500;28;20467;-63
2023/04/19 01:09:25;;;;;;;7.90;6.07;;;5.80;99.90;;;;;;4995882;28;20495;-63
2023/04/19 01:11:53;;;;;;;6.90;5.93;;;5.80;99.90;;;;;;5003758;28;20491;-63
2023/04/19 01:14:21;;;;;;;7.80;6.40;;;5.80;99.90;;;;;;5016717;28;20847;-63
2023/04/19 01:16:49;;;;;;;6.73;6.00;;;5.80;99.90;;;;;;5018844;28;20896;-63
2023/04/19 01:19:17;;;;;;;7.13;5.80;;;5.80;99.90;;;;;;5009174;28;21857;-63
2023/04/19 01:21:45;;;;;;;6.83;6.03;;;5.80;99.90;;;;;;5002049;28;20486;-63
2023/04/19 01:24:14;;;;;;;6.80;5.93;;;5.80;99.90;;;;;;4999863;28;20710;-63
2023/04/19 01:26:43;;;;;;;5.97;5.37;;;5.80;99.90;;;;;;5022015;28;20678;-64
2023/04/19 01:29:11;;;;;;;6.33;5.40;;;5.70;99.90;;;;;;5010410;28;20570;-64
2023/04/19 01:31:38;;;;;;;5.80;5.20;;;5.70;99.90;;;;;;5000212;28;20491;-63
2023/04/19 01:34:06;;;;;;;7.60;5.47;;;5.70;99.90;;;;;;4997567;28;20829;-63
2023/04/19 01:36:34;;;;;;;6.37;5.57;;;5.70;99.90;;;;;;4999729;28;20490;-63
2023/04/19 01:39:02;;;;;;;8.33;5.70;;;5.70;99.90;;;;;;4995253;28;20487;-63
2023/04/19 01:41:32;;;;;;;5.80;5.17;;;5.60;99.90;;;;;;5002458;28;20494;-63
2023/04/19 01:44:00;;;;;;;7.63;4.97;;;5.60;99.90;;;;;;4999794;28;20493;-63
2023/04/19 01:46:28;;;;;;;6.93;5.30;;;5.60;99.90;;;;;;5004495;28;20467;-63
2023/04/19 01:48:56;;;;;;;6.27;5.67;;;5.60;99.90;;;;;;4994703;28;20495;-63
2023/04/19 01:51:24;;;;;;;5.53;4.93;;;5.60;99.90;;;;;;4994049;28;21285;-63
2023/04/19 01:53:53;;;;;;;6.97;5.20;;;5.60;99.90;;;;;;5007313;28;20471;-63
2023/04/19 01:56:21;;;;;;;5.53;5.03;;;5.60;99.90;;;;;;5012804;28;20503;-63
2023/04/19 01:58:51;;;;;;;5.80;5.10;;;5.60;99.90;;;;;;5004588;28;21209;-64
2023/04/19 02:01:18;;;;;;;6.23;4.87;;;5.60;99.90;;;;;;4996908;28;20491;-63
2023/04/19 02:03:47;;;;;;;6.43;5.23;;;5.50;99.90;;;;;;5004007;28;20710;-63
2023/04/19 02:06:15;;;;;;;6.70;5.10;;;5.60;99.90;;;;;;4996436;28;20569;-63
2023/04/19 02:08:43;;;;;;;6.73;5.47;;;5.50;99.90;;;;;;5006096;28;20506;-63
2023/04/19 02:11:13;;;;;;;7.50;4.87;;;5.50;99.90;;;;;;5004431;28;21516;-63
2023/04/19 02:13:41;;;;;;;6.10;5.47;;;5.50;99.90;;;;;;5008920;28;21066;-63
2023/04/19 02:16:11;;;;;;;6.23;5.27;;;5.50;99.90;;;;;;5008069;28;20483;-63
2023/04/19 02:18:39;;;;;;;5.90;4.87;;;5.50;99.90;;;;;;5018037;28;20546;-63
2023/04/19 02:21:08;;;;;;;6.17;5.30;;;5.50;99.90;;;;;;5003210;28;20483;-63
2023/04/19 02:23:36;;;;;;;7.23;5.57;;;5.50;99.90;;;;;;4997009;28;20471;-63
2023/04/19 02:26:04;;;;;;;5.30;4.80;;;5.40;99.90;;;;;;5000164;28;20479;-63
2023/04/19 02:28:33;;;;;;;7.10;5.17;;;5.40;99.90;;;;;;5002611;28;20495;-63
2023/04/19 02:31:05;;;;;;;6.53;4.87;;;5.40;99.90;;;;;;4998224;28;20513;-63
2023/04/19 02:33:35;;;;;;;5.30;4.87;;;5.40;99.90;;;;;;5003503;28;21104;-63
2023/04/19 02:36:03;;;;;;;6.60;4.77;;;5.40;99.90;;;;;;4998509;28;20614;-62
2023/04/19 02:38:31;;;;;;;8.23;5.23;;;5.40;99.90;;;;;;5008767;28;20726;-63
2023/04/19 02:41:00;;;;;;;6.00;5.07;;;5.40;99.90;;;;;;5002085;28;20494;-63
2023/04/19 02:43:28;;;;;;;6.60;5.30;;;5.30;99.90;;;;;;5002124;28;20469;-63
2023/04/19 02:45:56;;;;;;;6.30;5.37;;;5.30;99.90;;;;;;5013878;28;20475;-63
2023/04/19 02:48:24;;;;;;;6.50;5.03;;;5.30;99.90;;;;;;5015521;28;20507;-62
2023/04/19 02:50:53;;;;;;;6.23;4.90;;;5.30;99.90;;;;;;5012856;28;20476;-63
2023/04/19 02:53:21;;;;;;;5.27;4.87;;;5.30;99.90;;;;;;5009801;28;20468;-63
2023/04/19 02:55:49;;;;;;;6.07;5.47;;;5.20;99.90;;;;;;5019457;28;20566;-63
2023/04/19 02:58:17;;;;;;;6.30;5.10;;;5.20;99.90;;;;;;5018367;28;20480;-63
2023/04/19 03:00:45;;;;;;;5.50;5.00;;;5.20;99.90;;;;;;5010531;28;20471;-63
2023/04/19 03:03:13;;;;;;;5.53;4.93;;;5.20;99.90;;;;;;5004804;28;20479;-63
2023/04/19 03:05:41;;;;;;;5.60;5.10;;;5.20;99.90;;;;;;4997618;28;20478;-63
2023/04/19 03:08:10;;;;;;;5.90;5.33;;;5.10;99.90;;;;;;5003519;28;20503;-63
2023/04/19 03:10:38;;;;;;;7.97;5.67;;;5.10;99.90;;;;;;5000126;28;20485;-63
2023/04/19 03:13:06;;;;;;;5.63;4.93;;;5.10;99.90;;;;;;5001507;28;20475;-63
2023/04/19 03:15:34;;;;;;;6.13;4.93;;;5.10;99.90;;;;;;5012881;28;20468;-63
2023/04/19 03:18:02;;;;;;;7.00;5.47;;;5.10;99.90;;;;;;5005767;28;21015;-63
2023/04/19 03:20:30;;;;;;;6.67;5.20;;;5.10;99.90;;;;;;5011324;28;20909;-62
2023/04/19 03:22:58;;;;;;;6.30;4.67;;;5.00;99.90;;;;;;5007052;28;20479;-63
2023/04/19 03:25:27;;;;;;;6.60;5.43;;;5.00;99.90;;;;;;4994134;28;20479;-63
2023/04/19 03:27:56;;;;;;;6.77;5.20;;;5.00;99.90;;;;;;5021182;28;20524;-64
2023/04/19 03:30:24;;;;;;;6.30;4.83;;;5.00;99.90;;;;;;5025313;28;20471;-63
2023/04/19 03:32:57;;;;;;;7.10;5.70;;;4.90;99.90;;;;;;5005177;28;20968;-63
2023/04/19 03:35:25;;;;;;;5.00;4.50;;;4.90;99.90;;;;;;5003635;28;20565;-63
2023/04/19 03:37:53;;;;;;;8.57;4.80;;;4.90;99.90;;;;;;4999129;28;22418;-63
2023/04/19 03:40:21;;;;;;;7.07;4.70;;;4.90;99.90;;;;;;5013070;28;20478;-62
2023/04/19 03:42:51;;;;;;;5.87;5.10;;;4.80;99.90;;;;;;5002909;28;21135;-63
2023/04/19 03:45:19;;;;;;;7.53;4.97;;;4.80;99.90;;;;;;5000104;28;21131;-63
2023/04/19 03:47:48;;;;;;;5.57;4.90;;;4.80;99.90;;;;;;5004484;28;20471;-63
2023/04/19 03:50:16;;;;;;;7.20;4.83;;;4.70;99.90;;;;;;5004377;28;22858;-63
2023/04/19 03:52:44;;;;;;;6.30;5.03;;;4.70;99.90;;;;;;5001655;28;20495;-63
2023/04/19 03:55:12;;;;;;;6.83;4.77;;;4.70;99.90;;;;;;5017216;28;20482;-63
2023/04/19 03:57:40;;;;;;;6.67;5.40;;;4.60;99.90;;;;;;5016206;28;20468;-62
2023/04/19 04:00:11;;;;;;;5.83;4.60;;;4.70;99.90;;;;;;5004449;28;20483;-62
2023/04/19 04:02:39;;;;;;;5.77;4.93;;;4.70;99.90;;;;;;5008016;28;20487;-62
2023/04/19 04:05:08;;;;;;;6.03;5.00;;;4.60;99.90;;;;;;4991998;28;21081;-63
2023/04/19 04:07:36;;;;;;;5.20;4.70;;;4.70;99.90;;;;;;4995332;28;20486;-63
2023/04/19 04:10:04;;;;;;;5.80;5.00;;;4.60;99.90;;;;;;4996551;28;20495;-63
2023/04/19 04:12:32;;;;;;;5.17;4.67;;;4.60;99.90;;;;;;5004028;28;20514;-63
2023/04/19 04:15:00;;;;;;;6.13;4.80;;;4.60;99.90;;;;;;5002213;28;20620;-64
2023/04/19 04:17:30;;;;;;;5.10;4.70;;;4.60;99.90;;;;;;5009620;28;20474;-62
2023/04/19 04:19:58;;;;;;;6.97;4.67;;;4.60;99.90;;;;;;5001248;28;20495;-62
2023/04/19 04:22:27;;;;;;;6.57;5.03;;;4.60;99.90;;;;;;4999881;28;20483;-63
2023/04/19 04:24:56;;;;;;;5.70;5.10;;;4.60;99.90;;;;;;5010646;28;20995;-62
2023/04/19 04:27:24;;;;;;;5.33;4.83;;;4.60;99.90;;;;;;4991178;28;20564;-62
2023/04/19 04:29:53;;;;;;;5.93;5.13;;;4.60;99.90;;;;;;4993465;28;21208;-62
2023/04/19 04:32:21;;;;;;;5.30;4.80;;;4.60;99.90;;;;;;4993807;28;20502;-62
2023/04/19 04:34:51;;;;;;;7.60;5.30;;;4.50;99.90;;;;;;4989973;28;20529;-63
2023/04/19 04:37:19;;;;;;;5.90;5.30;;;4.60;99.90;;;;;;4998830;28;20471;-63
2023/04/19 04:39:47;;;;;;;5.67;5.03;;;4.60;99.90;;;;;;5016480;28;20617;-63
2023/04/19 04:42:16;;;;;;;5.40;4.60;;;4.60;99.90;;;;;;5023002;28;20496;-63
2023/04/19 04:44:46;;;;;;;6.10;4.90;;;4.60;99.90;;;;;;5017031;28;20569;-63
2023/04/19 04:47:14;;;;;;;6.33;4.90;;;4.70;99.90;;;;;;5015785;28;20565;-63
2023/04/19 04:49:42;;;;;;;4.80;4.30;;;4.70;99.90;;;;;;5010146;28;20503;-63
2023/04/19 04:52:11;;;;;;;9.47;5.17;;;4.70;99.90;;;;;;5011026;28;20502;-63
2023/04/19 04:54:39;;;;;;;8.73;5.20;;;4.80;99.90;;;;;;5007400;28;20471;-62
2023/04/19 04:57:08;;;;;;;4.30;3.90;;;4.80;99.90;;;;;;5004287;28;20467;-63
2023/04/19 04:59:36;;;;;;;4.63;4.00;;;4.90;99.90;;;;;;5009375;28;20503;-63
2023/04/19 05:02:04;;;;;;;4.97;4.47;;;4.90;99.90;;;;;;4996787;28;20491;-62
2023/04/19 05:04:32;;;;;;;4.50;3.97;;;5.00;99.90;;;;;;5004147;28;20471;-63
2023/04/19 05:07:00;;;;;;;4.80;3.80;;;5.00;99.90;;;;;;5005519;28;21228;-63
2023/04/19 05:09:29;;;;;;;4.93;4.10;;;5.10;99.90;;;;;;4999373;28;20997;-63
2023/04/19 05:11:57;;;;;;;4.23;3.70;;;5.10;99.90;;;;;;4993065;28;21282;-64
2023/04/19 05:14:25;;;;;;;5.23;3.33;;;5.20;99.90;;;;;;4980521;28;22397;-63
2023/04/19 05:16:53;;;;;;;3.80;3.50;;;5.20;99.90;;;;;;5003883;28;20467;-63
2023/04/19 05:19:24;;;;;;;4.57;3.97;;;5.30;99.90;;;;;;4999030;28;20522;-63
2023/04/19 05:21:52;;;;;;;3.37;3.07;;;5.40;99.90;;;;;;5000144;28;20502;-63
2023/04/19 05:24:20;;;;;;;5.10;3.37;;;5.40;99.90;;;;;;5002439;28;20468;-65
2023/04/19 05:26:49;;;;;;;3.40;3.10;;;5.50;99.90;;;;;;5014472;28;20478;-63
2023/04/19 05:29:17;;;;;;;3.70;3.03;;;5.60;99.90;;;;;;5027512;28;20510;-63
2023/04/19 05:31:45;;;;;;;4.00;3.60;;;5.60;99.90;;;;;;5026017;28;20478;-63
2023/04/19 05:34:13;;;;;;;5.63;3.30;;;5.70;99.90;;;;;;5020865;28;20475;-63
2023/04/19 05:36:41;;;;;;;3.70;3.30;;;5.70;99.90;;;;;;5023665;28;20463;-63
2023/04/19 05:39:09;;;;;;;3.43;2.70;;;5.70;99.90;;;;;;5015116;28;20491;-63
2023/04/19 05:41:37;;;;;;;3.93;2.97;;;5.80;99.90;;;;;;5012716;28;20487;-63
2023/04/19 05:44:07;;;;;;;3.00;2.70;;;5.80;99.90;;;;;;5021245;28;20554;-62
2023/04/19 05:46:35;;;;;;;3.50;2.80;;;5.90;99.90;;;;;;5019165;28;20520;-63
2023/04/19 05:49:03;;;;;;;3.33;2.80;;;5.90;99.90;;;;;;5014695;28;20845;-63
2023/04/19 05:51:31;;;;;;;4.17;2.83;;;6.00;99.90;;;;;;5015166;28;20487;-63
2023/04/19 05:54:00;;;;;;;2.97;2.77;;;6.10;99.90;;;;;;5021338;28;20837;-63
2023/04/19 05:56:28;;;;;;;2.80;2.50;;;6.10;99.90;;;;;;5021094;28;20468;-62
2023/04/19 05:58:57;;;;;;;2.83;2.63;;;6.20;99.90;;;;;;5020159;28;20484;-63
2023/04/19 06:01:26;;;;;;;2.93;2.63;;;6.30;99.90;;;;;;5019160;28;20480;-63
2023/04/19 06:03:54;;;;;;;5.23;2.60;;;6.30;99.90;;;;;;5020878;28;20495;-63
2023/04/19 06:06:23;;;;;;;2.60;2.33;;;6.40;99.90;;;;;;5018574;28;20500;-63
2023/04/19 06:08:51;;;;;;;2.93;2.30;;;6.40;99.90;;;;;;5016274;28;20503;-63
2023/04/19 06:11:22;;;;;;;2.97;2.67;;;6.50;99.90;;;;;;5018889;28;20558;-62
2023/04/19 06:14:05;;;;;;;3.23;2.47;;;6.50;99.90;;;;;;5016643;28;20565;-63
2023/04/19 06:16:34;;;;;;;4.43;2.90;;;6.60;99.90;;;;;;5020152;28;20471;-63
2023/04/19 06:19:02;;;;;;;3.80;2.30;;;6.60;99.90;;;;;;5021497;28;20578;-62
2023/04/19 06:21:31;;;;;;;2.30;2.07;;;6.70;99.90;;;;;;5018570;28;20486;-63
2023/04/19 06:23:59;;;;;;;2.90;2.70;;;6.70;99.90;;;;;;5018245;28;20507;-63
2023/04/19 06:26:27;;;;;;;2.40;2.20;;;6.80;99.90;;;;;;5021709;28;20667;-63
2023/04/19 06:28:55;;;;;;;3.63;2.30;;;6.90;99.90;;;;;;5018819;28;20506;-63
2023/04/19 06:31:23;;;;;;;2.90;2.10;;;6.90;99.90;;;;;;5019862;28;20476;-63
2023/04/19 06:33:52;;;;;;;2.13;2.03;;;7.00;99.90;;;;;;5018828;28;20478;-63
2023/04/19 06:36:20;;;;;;;2.37;2.17;;;7.00;99.90;;;;;;5018194;28;20882;-63
2023/04/19 06:38:48;;;;;;;2.30;2.10;;;7.10;99.90;;;;;;5015262;28;20487;-63
2023/04/19 06:41:16;;;;;;;2.07;1.90;;;7.10;99.90;;;;;;5017668;28;20488;-63
2023/04/19 06:43:44;;;;;;;2.70;2.13;;;7.20;99.90;;;;;;5020043;28;20965;-62
2023/04/19 06:46:14;;;;;;;3.73;2.07;;;7.20;99.90;;;;;;5020196;28;20549;-63
2023/04/19 06:48:42;;;;;;;2.80;1.77;;;7.30;99.90;;;;;;5016635;28;20863;-63
2023/04/19 06:51:11;;;;;;;3.47;1.80;;;7.40;99.90;;;;;;5014964;28;20884;-63
2023/04/19 06:53:39;;;;;;;3.23;2.00;;;7.50;99.90;;;;;;5019666;28;20950;-63
2023/04/19 06:56:09;;;;;;;1.80;1.50;;;7.60;99.90;;;;;;5017379;28;20471;-62
2023/04/19 06:58:37;;;;;;;1.70;1.30;;;7.70;99.90;;;;;;5019525;28;21457;-63
2023/04/19 07:01:05;;;;;;;1.80;1.70;;;7.80;99.90;;;;;;5016686;28;20501;-63
2023/04/19 07:03:33;;;;;;;1.50;1.40;;;7.90;99.90;;;;;;5014109;28;20890;-63
2023/04/19 07:06:01;;;;;;;1.83;1.37;;;8.00;99.90;;;;;;5017819;28;20475;-63
2023/04/19 07:08:31;;;;;;;1.53;1.43;;;8.10;99.90;;;;;;5017172;28;20483;-63
2023/04/19 07:11:16;;;;;;;2.10;1.43;;;8.20;99.90;;;;;;5017630;28;20591;-63
2023/04/19 07:13:45;;;;;;;1.57;1.30;;;8.30;99.90;;;;;;5017299;28;20479;-63
2023/04/19 07:16:13;;;;;;;2.60;1.50;;;8.30;99.90;;;;;;5014936;28;20868;-63
2023/04/19 07:18:42;;;;;;;1.33;1.20;;;8.40;99.90;;;;;;5016772;28;20496;-63
2023/04/19 07:21:10;;;;;;;1.43;1.33;;;8.50;99.90;;;;;;5017732;28;21063;-63
2023/04/19 07:23:40;;;;;;;1.40;1.30;;;8.60;99.90;;;;;;5019176;28;20559;-63
2023/04/19 07:26:08;;;;;;;1.60;1.50;;;8.70;99.90;;;;;;5016740;28;20518;-64
2023/04/19 07:28:36;;;;;;;2.23;1.23;;;8.80;99.90;;;;;;5018344;28;20495;-63
2023/04/19 07:31:04;;;;;;;2.70;1.20;;;8.90;99.90;;;;;;5022232;28;20478;-64
2023/04/19 07:33:32;;;;;;;1.50;1.10;;;8.90;99.90;;;;;;5028904;28;20487;-64
2023/04/19 07:36:00;;;;;;;1.20;1.10;;;9.00;99.90;;;;;;5018875;28;20590;-64
2023/04/19 07:38:28;;;;;;;1.73;1.40;;;9.10;99.90;;;;;;5017306;28;20841;-64
2023/04/19 07:40:57;;;;;;;1.00;1.00;;;9.20;99.90;;;;;;5021348;28;20475;-64
2023/04/19 07:43:25;;;;;;;1.10;1.00;;;9.30;99.90;;;;;;5015328;28;20475;-64
2023/04/19 07:45:54;;;;;;;3.90;1.30;;;9.40;99.90;;;;;;5017146;28;20486;-64
2023/04/19 07:48:23;;;;;;;1.33;1.20;;;9.50;99.90;;;;;;5014280;28;20491;-64
2023/04/19 07:50:50;;;;;;;1.00;1.00;;;9.60;99.90;;;;;;5017164;28;20882;-64
2023/04/19 07:53:18;;;;;;;1.23;1.00;;;9.70;99.90;;;;;;5018346;28;20483;-64
2023/04/19 07:55:46;;;;;;;1.17;1.07;;;9.70;99.90;;;;;;5013717;28;20464;-63
2023/04/19 07:58:16;;;;;;;1.27;1.20;;;9.90;99.90;;;;;;5019171;28;20484;-64
2023/04/19 08:00:44;;;;;;;1.17;1.10;;;9.90;99.90;;;;;;5016136;28;20463;-63
2023/04/19 08:03:15;;;;;;;1.23;1.00;;;10.10;99.90;;;;;;5015050;28;20476;-64
2023/04/19 08:05:43;;;;;;;1.03;1.03;;;10.10;99.90;;;;;;5012063;28;20960;-63
2023/04/19 08:08:11;;;;;;;1.30;1.20;;;10.20;99.90;;;;;;5018639;28;20505;-64
2023/04/19 08:10:39;;;;;;;1.90;1.20;;;10.30;99.90;;;;;;5013394;28;20476;-64
2023/04/19 08:13:07;;;;;;;1.43;1.10;;;10.30;99.90;;;;;;5012752;28;20859;-64
2023/04/19 08:15:37;;;;;;;2.73;1.50;;;10.50;99.90;;;;;;5015021;28;20541;-64
2023/04/19 08:18:25;;;;;;;1.30;1.20;;;10.50;99.90;;;;;;5016705;28;20545;-64
2023/04/19 08:20:54;;;;;;;1.10;1.00;;;10.60;99.90;;;;;;5017596;28;20557;-63
2023/04/19 08:23:22;;;;;;;1.53;1.07;;;10.70;99.90;;;;;;5018712;28;20492;-64
2023/04/19 08:26:05;;;;;;;1.30;1.20;;;10.80;99.90;;;;;;5018590;28;20468;-64
2023/04/19 08:28:32;;;;;;;2.27;1.20;;;10.90;99.90;;;;;;5018354;28;20491;-64
2023/04/19 08:31:06;;;;;;;2.40;1.13;;;10.90;99.90;;;;;;5016879;28;21050;-64
2023/04/19 08:33:34;;;;;;;1.33;1.23;;;11.00;99.90;;;;;;5017231;28;20495;-64
2023/04/19 08:36:02;;;;;;;1.43;1.33;;;11.00;99.90;;;;;;5016795;28;20479;-64
2023/04/19 08:38:30;;;;;;;1.30;1.20;;;11.10;99.90;;;;;;5017031;28;20502;-64
2023/04/19 08:40:58;;;;;;;2.57;1.40;;;11.10;99.90;;;;;;5015663;28;20499;-64
2023/04/19 08:43:32;;;;;;;1.53;1.30;;;11.20;99.90;;;;;;5016289;28;20476;-64
2023/04/19 08:46:02;;;;;;;1.47;1.13;;;11.20;99.90;;;;;;5017665;28;20471;-64
2023/04/19 08:48:34;;;;;;;1.53;1.43;;;11.30;99.90;;;;;;5014765;28;20488;-63
2023/04/19 08:51:03;;;;;;;1.50;1.30;;;11.50;99.90;;;;;;5016790;28;20476;-64
2023/04/19 08:53:34;;;;;;;1.40;1.30;;;11.50;99.90;;;;;;5016431;28;20960;-64
2023/04/19 08:56:02;;;;;;;1.13;1.03;;;11.60;99.90;;;;;;5019294;28;20974;-63
2023/04/19 08:58:51;;;;;;;1.73;1.40;;;11.60;99.90;;;;;;5021235;28;20516;-63
2023/04/19 09:01:40;;;;;;;1.40;1.30;;;11.70;99.90;;;;;;5019544;28;20514;-62
2023/04/19 09:04:11;;;;;;;1.50;1.40;;;11.80;99.90;;;;;;5021575;28;20537;-62
2023/04/19 09:06:42;;;;;;;1.53;1.40;;;11.80;99.90;;;;;;5023431;28;20467;-65
2023/04/19 09:09:18;;;;;;;3.30;1.53;;;11.90;99.90;;;;;;5021267;28;20499;-62
2023/04/19 09:11:49;;;;;;;2.10;1.53;;;12.00;99.90;;;;;;5019247;28;20483;-62
2023/04/19 09:14:19;;;;;;;1.70;1.50;;;12.00;99.90;;;;;;5019919;28;20567;-63
2023/04/19 09:16:50;;;;;;;1.97;1.63;;;12.10;99.90;;;;;;5018137;28;20479;-62
2023/04/19 09:19:18;;;;;;;1.70;1.60;;;12.10;96.20;;;;;;5017717;28;20909;-63
2023/04/19 09:21:52;;;;;;;1.97;1.57;;;12.20;96.40;;;;;;5016783;28;20547;-62
2023/04/19 09:24:39;;;;;;;1.70;1.60;;;12.20;95.30;;;;;;5021925;28;20468;-62
2023/04/19 09:27:11;;;;;;;2.03;1.80;;;12.30;90.90;;;;;;5020325;28;20463;-62
2023/04/19 09:29:39;;;;;;;3.23;2.10;;;12.30;94.80;;;;;;5020382;28;20519;-62
2023/04/19 09:32:08;;;;;;;2.07;1.87;;;12.40;92.30;;;;;;5019991;28;20502;-62
2023/04/19 09:34:51;;;;;;;2.00;1.70;;;12.40;97.40;;;;;;5020169;28;20467;-62
2023/04/19 09:37:19;;;;;;;2.27;2.07;;;12.50;90.10;;;;;;5016057;28;20672;-62
2023/04/19 09:40:22;;;;;;;2.20;2.00;;;12.60;75.30;;;;;;5019679;28;20476;-62
2023/04/19 09:42:50;;;;;;;2.87;2.00;;;12.60;83.10;;;;;;5017963;28;20494;-62
2023/04/19 09:45:21;;;;;;;3.53;2.20;;;12.60;70.40;;;;;;5020017;28;20765;-62
2023/04/19 09:48:03;;;;;;;2.87;1.97;;;12.70;72.40;;;;;;5016248;28;20460;-62
2023/04/19 09:50:31;;;;;;;2.13;1.80;;;12.80;75.20;;;;;;5017512;28;20495;-64
2023/04/19 09:53:06;;;;;;;3.50;2.40;;;12.80;70.60;;;;;;5018630;28;20494;-65
2023/04/19 09:55:36;;;;;;;2.47;2.27;;;12.90;62.80;;;;;;5016163;28;20501;-62
2023/04/19 09:58:24;;;;;;;2.80;2.60;;;12.90;58.10;;;;;;5014426;28;20510;-62
2023/04/19 10:01:01;;;;;;;2.60;2.40;;;13.00;53.00;;;;;;5018602;28;20486;-63
2023/04/19 10:03:45;;;;;;;2.50;2.30;;;13.10;51.80;;;;;;5016319;28;20565;-63
2023/04/19 10:06:16;;;;;;;2.53;2.33;;;13.20;55.10;;;;;;5016892;28;20479;-63
2023/04/19 10:09:05;;;;;;;2.20;2.10;;;13.20;55.70;;;;;;5017447;28;21083;-63
2023/04/19 10:11:37;;;;;;;2.90;2.30;;;13.30;50.90;;;;;;5013083;28;20494;-63
2023/04/19 10:14:07;;;;;;;5.10;2.50;;;13.30;47.40;;;;;;5017183;28;21126;-63
2023/04/19 10:16:37;;;;;;;3.23;3.03;;;13.30;45.10;;;;;;5018789;28;20959;-63
2023/04/19 10:19:10;;;;;;;3.30;3.00;;;13.30;47.70;;;;;;5011626;28;20517;-63
2023/04/19 10:21:39;;;;;;;3.73;3.43;;;13.30;44.40;;;;;;5013959;28;20486;-63
2023/04/19 10:24:09;;;;;;;3.10;2.90;;;13.30;43.80;;;;;;5020686;28;20745;-63
2023/04/19 10:27:10;;;;;;;19.40;17.67;;;13.30;44.00;;;;;;5020348;28;20475;-63
2023/04/19 10:29:57;;;;;;;7.63;6.93;;;13.40;44.60;;;;;;5016308;28;20533;-63
2023/04/19 10:32:27;;;;;;;2.90;2.70;;;13.50;42.80;;;;;;5016138;28;21035;-63
2023/04/19 10:35:02;;;;;;;5.03;4.40;;;13.50;42.60;;;;;;5018614;28;20482;-64
2023/04/19 10:37:31;;;;;;;9.30;8.40;;;13.50;40.80;;;;;;5018874;28;20487;-64
2023/04/19 10:39:59;;;;;;;8.83;8.03;;;13.60;44.10;;;;;;5015732;28;20496;-64
2023/04/19 10:43:17;;;;;;;9.73;8.83;;;13.70;43.80;;;;;;5016158;28;20484;-64
2023/04/19 10:45:45;;;;;;;6.70;6.10;;;13.80;40.20;;;;;;5016343;28;20629;-64
2023/04/19 10:48:41;;;;;;;6.90;5.80;;;13.90;36.40;;;;;;5016275;28;20487;-64
2023/04/19 10:51:15;;;;;;;3.43;3.13;;;13.80;35.70;;;;;;5014466;28;20495;-64
2023/04/19 10:53:44;;;;;;;7.50;6.80;;;13.80;33.60;;;;;;5015134;28;20513;-64
2023/04/19 10:56:13;;;;;;;5.13;4.73;;;13.80;35.80;;;;;;5018235;28;20472;-63
2023/04/19 10:59:13;;;;;;;3.10;2.80;;;13.90;35.30;;;;;;5014814;28;20512;-63
2023/04/19 11:01:43;;;;;;;3.07;2.87;;;13.90;32.30;;;;;;5016417;28;20496;-64
2023/04/19 11:04:12;;;;;;;3.97;3.57;;;14.00;31.60;;;;;;5017967;28;20917;-63
2023/04/19 11:07:00;;;;;;;3.80;3.50;;;14.00;30.60;;;;;;5017990;28;20481;-63
2023/04/19 11:09:33;;;;;;;3.90;3.60;;;14.00;30.30;;;;;;5019190;28;20506;-63
2023/04/19 11:12:04;;;;;;;4.33;4.03;;;14.00;29.40;;;;;;5016764;28;20837;-63
2023/04/19 11:14:35;;;;;;;5.00;2.80;;;14.00;31.00;;;;;;5015617;28;20481;-64
2023/04/19 11:17:13;;;;;;;4.00;3.60;;;14.00;29.30;;;;;;5014806;28;20476;-64
2023/04/19 11:19:43;;;;;;;4.33;3.80;;;14.00;30.00;;;;;;5016556;28;21286;-64
2023/04/19 11:22:12;;;;;;;3.03;2.83;;;14.10;31.00;;;;;;5015091;28;20491;-64
2023/04/19 11:24:46;;;;;;;5.43;4.90;;;14.10;31.20;;;;;;5016010;28;20814;-64
2023/04/19 11:27:15;;;;;;;4.60;4.17;;;14.20;31.80;;;;;;5010879;28;20634;-63
2023/04/19 11:29:43;;;;;;;4.60;4.20;;;14.30;31.40;;;;;;5010391;28;20507;-63
2023/04/19 11:32:11;;;;;;;3.50;3.20;;;14.40;32.70;;;;;;5003650;28;22483;-63
2023/04/19 11:34:40;;;;;;;3.40;2.83;;;14.50;31.70;;;;;;5009166;28;20614;-63
2023/04/19 11:37:09;;;;;;;7.07;6.40;;;14.60;29.80;;;;;;5003823;28;20505;-63
2023/04/19 11:39:47;;;;;;;6.17;5.57;;;14.60;31.90;;;;;;5016464;28;20495;-64
2023/04/19 11:42:19;;;;;;;4.40;3.10;;;14.60;30.30;;;;;;5015239;28;20602;-64
2023/04/19 11:44:51;;;;;;;3.20;2.90;;;14.60;29.50;;;;;;5016408;28;20783;-64
2023/04/19 11:47:19;;;;;;;4.53;4.10;;;14.70;29.90;;;;;;5017584;28;20467;-63
2023/04/19 11:49:47;;;;;;;5.20;3.57;;;14.70;29.50;;;;;;5017216;28;20491;-64
2023/04/19 11:52:21;;;;;;;2.90;2.67;;;14.70;29.50;;;;;;5016143;28;20492;-64
2023/04/19 11:54:51;;;;;;;3.20;2.97;;;14.70;28.60;;;;;;5015860;28;20491;-64
2023/04/19 11:57:29;;;;;;;3.00;2.80;;;14.80;29.50;;;;;;5018991;28;20472;-64
2023/04/19 12:00:10;;;;;;;3.50;3.20;;;14.80;27.90;;;;;;5014873;28;20493;-63
2023/04/19 12:02:39;;;;;;;2.93;2.73;;;14.80;28.30;;;;;;5015093;28;20568;-63
2023/04/19 12:05:09;;;;;;;3.07;2.50;;;14.80;28.90;;;;;;5018678;28;20476;-63
2023/04/19 12:07:53;;;;;;;3.50;3.30;;;14.90;27.80;;;;;;5017042;28;21016;-63
2023/04/19 12:10:23;;;;;;;3.03;2.83;;;14.90;28.50;;;;;;5017720;28;21096;-64
2023/04/19 12:12:51;;;;;;;7.00;2.70;;;15.00;27.50;;;;;;5010127;28;20492;-64
2023/04/19 12:15:19;;;;;;;4.30;3.90;;;15.00;27.10;;;;;;5013138;28;20472;-64
2023/04/19 12:17:57;;;;;;;3.50;3.20;;;15.10;27.50;;;;;;5005109;28;20849;-64
2023/04/19 12:20:32;;;;;;;4.00;3.43;;;15.10;27.20;;;;;;5012501;28;20471;-63
2023/04/19 12:23:01;;;;;;;3.00;2.80;;;15.20;27.40;;;;;;5005481;28;20574;-63
2023/04/19 12:25:32;;;;;;;4.57;2.40;;;15.20;27.40;;;;;;4996893;28;21519;-63
2023/04/19 12:28:00;;;;;;;3.27;2.40;;;15.20;26.90;;;;;;5015523;28;20503;-63
2023/04/19 12:30:28;;;;;;;3.83;2.33;;;15.20;27.40;;;;;;5012856;28;20479;-62
2023/04/19 12:32:56;;;;;;;2.80;2.53;;;15.20;27.90;;;;;;5008453;28;20944;-64
2023/04/19 12:35:26;;;;;;;2.93;2.13;;;15.30;27.20;;;;;;5009629;28;20471;-64
2023/04/19 12:37:55;;;;;;;2.30;2.10;;;15.30;27.50;;;;;;5013654;28;20478;-63
2023/04/19 12:40:25;;;;;;;3.23;2.37;;;15.40;26.90;;;;;;5015694;28;20492;-64
2023/04/19 12:42:54;;;;;;;3.53;2.23;;;15.40;27.20;;;;;;5009161;28;20483;-64
2023/04/19 12:45:22;;;;;;;4.00;2.67;;;15.40;27.10;;;;;;5014662;28;20467;-64
2023/04/19 12:47:50;;;;;;;2.40;2.00;;;15.50;27.80;;;;;;5016308;28;20823;-64
2023/04/19 12:50:18;;;;;;;4.50;2.10;;;15.60;29.30;;;;;;5013854;28;20969;-64
2023/04/19 12:52:46;;;;;;;3.37;2.50;;;15.70;27.30;;;;;;5016618;28;20494;-64
2023/04/19 12:55:14;;;;;;;2.57;2.17;;;15.80;27.30;;;;;;5014487;28;20503;-63
2023/04/19 12:57:42;;;;;;;2.60;2.40;;;15.90;27.70;;;;;;5011268;28;20479;-64
2023/04/19 13:00:13;;;;;;;3.07;2.50;;;15.90;27.90;;;;;;5008313;28;20472;-64
2023/04/19 13:02:41;;;;;;;5.57;2.63;;;15.90;28.00;;;;;;5012413;28;20494;-64
2023/04/19 13:05:11;;;;;;;2.43;2.23;;;15.90;29.30;;;;;;5011461;28;20499;-64
2023/04/19 13:07:39;;;;;;;4.13;2.50;;;16.00;28.40;;;;;;5009287;28;20491;-64